sensor_id;sensor_type;location;lat;lon;timestamp;temperature;humidity
16479;DHT22;8350;52.316;10.530;2024-03-17T00:00:57;4.00;99.90
16479;DHT22;8350;52.316;10.530;2024-03-17T00:03:25;4.00;99.90
16479;DHT22;8350;52.316;10.530;2024-03-17T00:05:56;4.10;99.90
16479;DHT22;8350;52.316;10.530;2024-03-17T00:08:27;4.00;99.90
16479;DHT22;8350;52.316;10.530;2024-03-17T00:10:55;4.00;99.90
16479;DHT22;8350;52.316;10.530;2024-03-17T00:13:21;4.00;99.90
16479;DHT22;8350;52.316;10.530;2024-03-17T00:15:48;3.90;99.90
16479;DHT22;8350;52.316;10.530;2024-03-17T00:18:14;3.80;99.90
16479;DHT22;8350;52.316;10.530;2024-03-17T00:20:41;3.80;99.90
16479;DHT22;8350;52.316;10.530;2024-03-17T00:23:08;3.70;99.90
16479;DHT22;8350;52.316;10.530;2024-03-17T00:25:37;3.80;99.90
16479;DHT22;8350;52.316;10.530;2024-03-17T00:28:08;3.60;99.90
16479;DHT22;8350;52.316;10.530;2024-03-17T00:30:34;3.60;99.90
16479;DHT22;8350;52.316;10.530;2024-03-17T00:33:05;3.50;99.90
16479;DHT22;8350;52.316;10.530;2024-03-17T00:35:30;3.50;99.90
16479;DHT22;8350;52.316;10.530;2024-03-17T00:37:58;3.40;99.90
16479;DHT22;8350;52.316;10.530;2024-03-17T00:40:26;3.30;99.90
16479;DHT22;8350;52.316;10.530;2024-03-17T00:42:55;3.40;99.90
16479;DHT22;8350;52.316;10.530;2024-03-17T00:45:21;3.30;99.90
16479;DHT22;8350;52.316;10.530;2024-03-17T00:47:51;3.30;99.90
16479;DHT22;8350;52.316;10.530;2024-03-17T00:50:17;3.20;99.90
16479;DHT22;8350;52.316;10.530;2024-03-17T00:52:44;3.10;99.90
16479;DHT22;8350;52.316;10.530;2024-03-17T00:55:10;3.10;99.90
16479;DHT22;8350;52.316;10.530;2024-03-17T00:57:41;3.00;99.90
16479;DHT22;8350;52.316;10.530;2024-03-17T01:00:08;3.00;99.90
16479;DHT22;8350;52.316;10.530;2024-03-17T01:02:37;2.90;99.90
16479;DHT22;8350;52.316;10.530;2024-03-17T01:05:03;2.90;99.90
16479;DHT22;8350;52.316;10.530;2024-03-17T01:07:31;2.80;99.90
16479;DHT22;8350;52.316;10.530;2024-03-17T01:09:57;2.70;99.90
16479;DHT22;8350;52.316;10.530;2024-03-17T01:12:24;2.80;99.90
16479;DHT22;8350;52.316;10.530;2024-03-17T01:14:51;2.70;99.90
16479;DHT22;8350;52.316;10.530;2024-03-17T01:17:18;2.60;99.90
16479;DHT22;8350;52.316;10.530;2024-03-17T01:19:46;2.60;99.90
16479;DHT22;8350;52.316;10.530;2024-03-17T01:22:13;2.60;99.90
16479;DHT22;8350;52.316;10.530;2024-03-17T01:24:41;2.60;99.90
16479;DHT22;8350;52.316;10.530;2024-03-17T01:27:11;2.60;99.90
16479;DHT22;8350;52.316;10.530;2024-03-17T01:29:40;2.50;99.90
16479;DHT22;8350;52.316;10.530;2024-03-17T01:32:08;2.40;99.90
16479;DHT22;8350;52.316;10.530;2024-03-17T01:34:39;2.40;99.90
16479;DHT22;8350;52.316;10.530;2024-03-17T01:37:05;2.40;99.90
16479;DHT22;8350;52.316;10.530;2024-03-17T01:39:34;2.30;99.90
16479;DHT22;8350;52.316;10.530;2024-03-17T01:41:59;2.20;99.90
16479;DHT22;8350;52.316;10.530;2024-03-17T01:44:28;2.20;99.90
16479;DHT22;8350;52.316;10.530;2024-03-17T01:46:54;2.20;99.90
16479;DHT22;8350;52.316;10.530;2024-03-17T01:49:25;2.10;99.90
16479;DHT22;8350;52.316;10.530;2024-03-17T01:51:52;1.90;99.90
16479;DHT22;8350;52.316;10.530;2024-03-17T01:54:20;1.80;99.90
16479;DHT22;8350;52.316;10.530;2024-03-17T01:56:51;1.70;99.90
16479;DHT22;8350;52.316;10.530;2024-03-17T01:59:18;1.80;99.90
16479;DHT22;8350;52.316;10.530;2024-03-17T02:01:44;1.90;99.90
16479;DHT22;8350;52.316;10.530;2024-03-17T02:04:11;1.80;99.90
16479;DHT22;8350;52.316;10.530;2024-03-17T02:06:38;1.70;99.90
16479;DHT22;8350;52.316;10.530;2024-03-17T02:09:07;1.70;99.90
16479;DHT22;8350;52.316;10.530;2024-03-17T02:11:33;1.60;99.90
16479;DHT22;8350;52.316;10.530;2024-03-17T02:14:01;1.50;99.90
16479;DHT22;8350;52.316;10.530;2024-03-17T02:16:26;1.40;99.90
16479;DHT22;8350;52.316;10.530;2024-03-17T02:18:57;1.20;99.90
16479;DHT22;8350;52.316;10.530;2024-03-17T02:21:24;1.20;99.90
16479;DHT22;8350;52.316;10.530;2024-03-17T02:23:54;1.20;99.90
16479;DHT22;8350;52.316;10.530;2024-03-17T02:26:24;1.10;99.90
16479;DHT22;8350;52.316;10.530;2024-03-17T02:28:51;1.10;99.90
16479;DHT22;8350;52.316;10.530;2024-03-17T02:31:17;1.10;99.90
16479;DHT22;8350;52.316;10.530;2024-03-17T02:33:45;1.20;99.90
16479;DHT22;8350;52.316;10.530;2024-03-17T02:36:13;1.30;99.90
16479;DHT22;8350;52.316;10.530;2024-03-17T02:38:42;1.30;99.90
16479;DHT22;8350;52.316;10.530;2024-03-17T02:41:28;1.20;99.90
16479;DHT22;8350;52.316;10.530;2024-03-17T02:43:55;1.20;99.90
16479;DHT22;8350;52.316;10.530;2024-03-17T02:46:22;1.20;99.90
16479;DHT22;8350;52.316;10.530;2024-03-17T02:48:52;1.10;99.90
16479;DHT22;8350;52.316;10.530;2024-03-17T02:51:20;0.90;99.90
16479;DHT22;8350;52.316;10.530;2024-03-17T02:53:52;0.80;99.90
16479;DHT22;8350;52.316;10.530;2024-03-17T02:56:19;0.70;99.90
16479;DHT22;8350;52.316;10.530;2024-03-17T02:58:48;0.70;99.90
16479;DHT22;8350;52.316;10.530;2024-03-17T03:01:17;0.70;99.90
16479;DHT22;8350;52.316;10.530;2024-03-17T03:03:45;0.80;99.90
16479;DHT22;8350;52.316;10.530;2024-03-17T03:06:11;0.80;99.90
16479;DHT22;8350;52.316;10.530;2024-03-17T03:08:38;0.80;99.90
16479;DHT22;8350;52.316;10.530;2024-03-17T03:11:07;0.60;99.90
16479;DHT22;8350;52.316;10.530;2024-03-17T03:13:42;0.50;99.90
16479;DHT22;8350;52.316;10.530;2024-03-17T03:16:14;0.40;99.90
16479;DHT22;8350;52.316;10.530;2024-03-17T03:18:41;0.40;99.90
16479;DHT22;8350;52.316;10.530;2024-03-17T03:21:10;0.40;99.90
16479;DHT22;8350;52.316;10.530;2024-03-17T03:23:39;0.40;99.90
16479;DHT22;8350;52.316;10.530;2024-03-17T03:26:09;0.50;99.90
16479;DHT22;8350;52.316;10.530;2024-03-17T03:28:35;0.60;99.90
16479;DHT22;8350;52.316;10.530;2024-03-17T03:31:03;0.70;99.90
16479;DHT22;8350;52.316;10.530;2024-03-17T03:33:31;0.70;99.90
16479;DHT22;8350;52.316;10.530;2024-03-17T03:35:58;0.80;99.90
16479;DHT22;8350;52.316;10.530;2024-03-17T03:38:25;0.80;99.90
16479;DHT22;8350;52.316;10.530;2024-03-17T03:40:54;0.70;99.90
16479;DHT22;8350;52.316;10.530;2024-03-17T03:43:23;0.70;99.90
16479;DHT22;8350;52.316;10.530;2024-03-17T03:45:52;0.80;99.90
16479;DHT22;8350;52.316;10.530;2024-03-17T03:48:19;0.80;99.90
16479;DHT22;8350;52.316;10.530;2024-03-17T03:50:47;0.90;99.90
16479;DHT22;8350;52.316;10.530;2024-03-17T03:53:14;0.80;99.90
16479;DHT22;8350;52.316;10.530;2024-03-17T03:55:41;0.80;99.90
16479;DHT22;8350;52.316;10.530;2024-03-17T03:58:07;0.70;99.90
16479;DHT22;8350;52.316;10.530;2024-03-17T04:00:34;0.40;99.90
16479;DHT22;8350;52.316;10.530;2024-03-17T04:03:05;0.20;99.90
16479;DHT22;8350;52.316;10.530;2024-03-17T04:05:32;0.10;99.90
16479;DHT22;8350;52.316;10.530;2024-03-17T04:08:01;0.20;99.90
16479;DHT22;8350;52.316;10.530;2024-03-17T04:10:28;0.20;99.90
16479;DHT22;8350;52.316;10.530;2024-03-17T04:12:55;0.10;99.90
16479;DHT22;8350;52.316;10.530;2024-03-17T04:15:22;0.00;99.90
16479;DHT22;8350;52.316;10.530;2024-03-17T04:17:49;-0.10;99.90
16479;DHT22;8350;52.316;10.530;2024-03-17T04:20:18;-0.20;99.90
16479;DHT22;8350;52.316;10.530;2024-03-17T04:22:46;-0.30;99.90
16479;DHT22;8350;52.316;10.530;2024-03-17T04:25:16;-0.30;99.90
16479;DHT22;8350;52.316;10.530;2024-03-17T04:27:45;-0.40;99.90
16479;DHT22;8350;52.316;10.530;2024-03-17T04:30:12;-0.50;99.90
16479;DHT22;8350;52.316;10.530;2024-03-17T04:32:46;-0.60;99.90
16479;DHT22;8350;52.316;10.530;2024-03-17T04:35:15;-0.70;99.90
16479;DHT22;8350;52.316;10.530;2024-03-17T04:37:42;-0.70;99.90
16479;DHT22;8350;52.316;10.530;2024-03-17T04:40:10;-0.70;99.90
16479;DHT22;8350;52.316;10.530;2024-03-17T04:42:38;-0.70;99.90
16479;DHT22;8350;52.316;10.530;2024-03-17T04:45:11;-0.70;99.90
16479;DHT22;8350;52.316;10.530;2024-03-17T04:47:38;-0.70;99.90
16479;DHT22;8350;52.316;10.530;2024-03-17T04:50:06;-0.70;99.90
16479;DHT22;8350;52.316;10.530;2024-03-17T04:52:35;-0.60;99.90
16479;DHT22;8350;52.316;10.530;2024-03-17T04:55:04;-0.60;99.90
16479;DHT22;8350;52.316;10.530;2024-03-17T04:57:31;-0.60;99.90
16479;DHT22;8350;52.316;10.530;2024-03-17T05:00:03;-0.50;99.90
16479;DHT22;8350;52.316;10.530;2024-03-17T05:02:35;-0.30;99.90
16479;DHT22;8350;52.316;10.530;2024-03-17T05:05:02;-0.20;99.90
16479;DHT22;8350;52.316;10.530;2024-03-17T05:07:31;0.00;99.90
16479;DHT22;8350;52.316;10.530;2024-03-17T05:09:58;0.20;99.90
16479;DHT22;8350;52.316;10.530;2024-03-17T05:12:29;0.30;99.90
16479;DHT22;8350;52.316;10.530;2024-03-17T05:14:56;0.30;99.90
16479;DHT22;8350;52.316;10.530;2024-03-17T05:17:24;0.40;99.90
16479;DHT22;8350;52.316;10.530;2024-03-17T05:19:52;0.40;99.90
16479;DHT22;8350;52.316;10.530;2024-03-17T05:22:19;0.40;99.90
16479;DHT22;8350;52.316;10.530;2024-03-17T05:24:48;0.50;99.90
16479;DHT22;8350;52.316;10.530;2024-03-17T05:27:15;0.50;99.90
16479;DHT22;8350;52.316;10.530;2024-03-17T05:29:42;0.60;99.90
16479;DHT22;8350;52.316;10.530;2024-03-17T05:32:10;0.60;99.90
16479;DHT22;8350;52.316;10.530;2024-03-17T05:34:39;0.60;99.90
16479;DHT22;8350;52.316;10.530;2024-03-17T05:37:08;0.60;99.90
16479;DHT22;8350;52.316;10.530;2024-03-17T05:39:35;0.60;99.90
16479;DHT22;8350;52.316;10.530;2024-03-17T05:42:01;0.60;99.90
16479;DHT22;8350;52.316;10.530;2024-03-17T05:44:29;0.70;99.90
16479;DHT22;8350;52.316;10.530;2024-03-17T05:47:14;0.70;99.90
16479;DHT22;8350;52.316;10.530;2024-03-17T05:49:43;0.70;99.90
16479;DHT22;8350;52.316;10.530;2024-03-17T05:52:11;0.70;99.90
16479;DHT22;8350;52.316;10.530;2024-03-17T05:54:38;0.80;99.90
16479;DHT22;8350;52.316;10.530;2024-03-17T05:57:05;0.90;99.90
16479;DHT22;8350;52.316;10.530;2024-03-17T05:59:32;0.90;99.90
16479;DHT22;8350;52.316;10.530;2024-03-17T06:01:59;0.90;99.90
16479;DHT22;8350;52.316;10.530;2024-03-17T06:04:26;1.00;99.90
16479;DHT22;8350;52.316;10.530;2024-03-17T06:06:58;1.00;99.90
16479;DHT22;8350;52.316;10.530;2024-03-17T06:09:26;1.10;99.90
16479;DHT22;8350;52.316;10.530;2024-03-17T06:11:52;1.20;99.90
16479;DHT22;8350;52.316;10.530;2024-03-17T06:14:19;1.30;99.90
16479;DHT22;8350;52.316;10.530;2024-03-17T06:16:46;1.40;99.90
16479;DHT22;8350;52.316;10.530;2024-03-17T06:19:27;1.40;99.90
16479;DHT22;8350;52.316;10.530;2024-03-17T06:21:56;1.50;99.90
16479;DHT22;8350;52.316;10.530;2024-03-17T06:24:23;1.60;99.90
16479;DHT22;8350;52.316;10.530;2024-03-17T06:26:52;1.70;99.90
16479;DHT22;8350;52.316;10.530;2024-03-17T06:29:39;1.70;99.90
16479;DHT22;8350;52.316;10.530;2024-03-17T06:32:13;1.80;99.90
16479;DHT22;8350;52.316;10.530;2024-03-17T06:34:45;1.90;99.90
16479;DHT22;8350;52.316;10.530;2024-03-17T06:37:16;2.00;99.90
16479;DHT22;8350;52.316;10.530;2024-03-17T06:39:47;2.10;99.90
16479;DHT22;8350;52.316;10.530;2024-03-17T06:42:14;2.20;99.90
16479;DHT22;8350;52.316;10.530;2024-03-17T06:44:41;2.30;99.90
16479;DHT22;8350;52.316;10.530;2024-03-17T06:47:08;2.40;99.90
16479;DHT22;8350;52.316;10.530;2024-03-17T06:49:35;2.40;99.90
16479;DHT22;8350;52.316;10.530;2024-03-17T06:52:04;2.50;99.90
16479;DHT22;8350;52.316;10.530;2024-03-17T06:54:35;2.60;99.90
16479;DHT22;8350;52.316;10.530;2024-03-17T06:57:03;2.80;99.90
16479;DHT22;8350;52.316;10.530;2024-03-17T06:59:33;3.10;99.90
16479;DHT22;8350;52.316;10.530;2024-03-17T07:02:07;3.30;99.90
16479;DHT22;8350;52.316;10.530;2024-03-17T07:04:37;3.40;99.90
16479;DHT22;8350;52.316;10.530;2024-03-17T07:07:03;3.60;99.90
16479;DHT22;8350;52.316;10.530;2024-03-17T07:09:29;3.70;99.90
16479;DHT22;8350;52.316;10.530;2024-03-17T07:11:58;3.80;99.90
16479;DHT22;8350;52.316;10.530;2024-03-17T07:14:25;3.90;99.90
16479;DHT22;8350;52.316;10.530;2024-03-17T07:16:52;4.00;99.90
16479;DHT22;8350;52.316;10.530;2024-03-17T07:19:19;4.10;99.90
16479;DHT22;8350;52.316;10.530;2024-03-17T07:21:45;4.20;99.90
16479;DHT22;8350;52.316;10.530;2024-03-17T07:24:14;4.40;99.90
16479;DHT22;8350;52.316;10.530;2024-03-17T07:26:43;4.60;99.90
16479;DHT22;8350;52.316;10.530;2024-03-17T07:29:11;4.70;99.90
16479;DHT22;8350;52.316;10.530;2024-03-17T07:31:40;4.90;99.90
16479;DHT22;8350;52.316;10.530;2024-03-17T07:34:07;5.20;99.90
16479;DHT22;8350;52.316;10.530;2024-03-17T07:36:36;5.60;99.90
16479;DHT22;8350;52.316;10.530;2024-03-17T07:39:13;6.00;99.90
16479;DHT22;8350;52.316;10.530;2024-03-17T07:41:39;6.40;99.90
16479;DHT22;8350;52.316;10.530;2024-03-17T07:44:06;6.70;99.90
16479;DHT22;8350;52.316;10.530;2024-03-17T07:46:41;7.10;99.90
16479;DHT22;8350;52.316;10.530;2024-03-17T07:49:08;7.30;99.90
16479;DHT22;8350;52.316;10.530;2024-03-17T07:51:37;7.40;99.90
16479;DHT22;8350;52.316;10.530;2024-03-17T07:54:08;7.80;99.90
16479;DHT22;8350;52.316;10.530;2024-03-17T07:56:35;7.90;99.90
16479;DHT22;8350;52.316;10.530;2024-03-17T07:59:05;8.10;99.90
16479;DHT22;8350;52.316;10.530;2024-03-17T08:01:39;8.10;99.90
16479;DHT22;8350;52.316;10.530;2024-03-17T08:04:05;8.10;99.90
16479;DHT22;8350;52.316;10.530;2024-03-17T08:06:38;8.10;99.90
16479;DHT22;8350;52.316;10.530;2024-03-17T08:09:07;8.30;99.90
16479;DHT22;8350;52.316;10.530;2024-03-17T08:11:38;8.30;99.90
16479;DHT22;8350;52.316;10.530;2024-03-17T08:14:09;8.30;99.90
16479;DHT22;8350;52.316;10.530;2024-03-17T08:16:38;8.20;99.90
16479;DHT22;8350;52.316;10.530;2024-03-17T08:19:12;8.20;99.90
16479;DHT22;8350;52.316;10.530;2024-03-17T08:21:41;8.30;99.90
16479;DHT22;8350;52.316;10.530;2024-03-17T08:24:08;8.50;99.90
16479;DHT22;8350;52.316;10.530;2024-03-17T08:26:35;8.60;99.90
16479;DHT22;8350;52.316;10.530;2024-03-17T08:29:02;8.70;99.90
16479;DHT22;8350;52.316;10.530;2024-03-17T08:31:28;8.50;99.90
16479;DHT22;8350;52.316;10.530;2024-03-17T08:36:44;8.60;99.90
16479;DHT22;8350;52.316;10.530;2024-03-17T08:39:12;8.70;99.90
16479;DHT22;8350;52.316;10.530;2024-03-17T08:41:42;8.70;99.90
16479;DHT22;8350;52.316;10.530;2024-03-17T08:44:09;8.50;99.90
16479;DHT22;8350;52.316;10.530;2024-03-17T08:46:36;8.70;99.90
16479;DHT22;8350;52.316;10.530;2024-03-17T08:49:03;8.70;99.90
16479;DHT22;8350;52.316;10.530;2024-03-17T08:51:30;8.80;99.90
16479;DHT22;8350;52.316;10.530;2024-03-17T08:54:06;8.90;99.90
16479;DHT22;8350;52.316;10.530;2024-03-17T08:56:33;8.80;99.90
16479;DHT22;8350;52.316;10.530;2024-03-17T08:59:04;8.90;99.90
16479;DHT22;8350;52.316;10.530;2024-03-17T09:01:31;8.90;99.90
16479;DHT22;8350;52.316;10.530;2024-03-17T09:03:57;9.00;99.90
16479;DHT22;8350;52.316;10.530;2024-03-17T09:06:26;8.90;99.90
16479;DHT22;8350;52.316;10.530;2024-03-17T09:08:55;9.10;99.90
16479;DHT22;8350;52.316;10.530;2024-03-17T09:11:30;9.00;99.90
16479;DHT22;8350;52.316;10.530;2024-03-17T09:13:56;8.90;99.90
16479;DHT22;8350;52.316;10.530;2024-03-17T09:16:26;8.80;99.90
16479;DHT22;8350;52.316;10.530;2024-03-17T09:18:57;8.80;99.90
16479;DHT22;8350;52.316;10.530;2024-03-17T09:21:24;8.90;99.90
16479;DHT22;8350;52.316;10.530;2024-03-17T09:23:51;9.00;99.90
16479;DHT22;8350;52.316;10.530;2024-03-17T09:26:18;9.10;99.90
16479;DHT22;8350;52.316;10.530;2024-03-17T09:28:46;9.10;99.90
16479;DHT22;8350;52.316;10.530;2024-03-17T09:31:17;9.20;99.90
16479;DHT22;8350;52.316;10.530;2024-03-17T09:33:45;9.30;99.90
16479;DHT22;8350;52.316;10.530;2024-03-17T09:36:13;9.30;99.90
16479;DHT22;8350;52.316;10.530;2024-03-17T09:38:40;9.30;99.90
16479;DHT22;8350;52.316;10.530;2024-03-17T09:41:07;9.30;99.90
16479;DHT22;8350;52.316;10.530;2024-03-17T09:43:35;9.40;99.90
16479;DHT22;8350;52.316;10.530;2024-03-17T09:46:04;9.50;99.90
16479;DHT22;8350;52.316;10.530;2024-03-17T09:48:33;9.40;99.90
16479;DHT22;8350;52.316;10.530;2024-03-17T09:51:05;9.10;99.90
16479;DHT22;8350;52.316;10.530;2024-03-17T09:53:35;9.00;99.90
16479;DHT22;8350;52.316;10.530;2024-03-17T09:56:05;9.20;99.90
16479;DHT22;8350;52.316;10.530;2024-03-17T09:58:36;9.30;99.90
16479;DHT22;8350;52.316;10.530;2024-03-17T10:01:05;9.40;99.90
16479;DHT22;8350;52.316;10.530;2024-03-17T10:03:45;9.50;99.90
16479;DHT22;8350;52.316;10.530;2024-03-17T10:06:16;9.40;99.90
16479;DHT22;8350;52.316;10.530;2024-03-17T10:08:44;9.30;99.90
16479;DHT22;8350;52.316;10.530;2024-03-17T10:11:14;9.20;99.90
16479;DHT22;8350;52.316;10.530;2024-03-17T10:13:59;9.30;99.90
16479;DHT22;8350;52.316;10.530;2024-03-17T10:16:28;9.40;99.90
16479;DHT22;8350;52.316;10.530;2024-03-17T10:19:07;9.50;99.90
16479;DHT22;8350;52.316;10.530;2024-03-17T10:21:36;9.80;99.90
16479;DHT22;8350;52.316;10.530;2024-03-17T10:24:06;10.10;99.90
16479;DHT22;8350;52.316;10.530;2024-03-17T10:26:37;10.20;99.90
16479;DHT22;8350;52.316;10.530;2024-03-17T10:29:20;10.20;99.90
16479;DHT22;8350;52.316;10.530;2024-03-17T10:31:49;10.00;99.90
16479;DHT22;8350;52.316;10.530;2024-03-17T10:34:16;9.90;99.90
16479;DHT22;8350;52.316;10.530;2024-03-17T10:36:44;9.90;99.90
16479;DHT22;8350;52.316;10.530;2024-03-17T10:39:23;9.90;99.90
16479;DHT22;8350;52.316;10.530;2024-03-17T10:41:56;10.00;99.90
16479;DHT22;8350;52.316;10.530;2024-03-17T10:44:24;10.00;99.90
16479;DHT22;8350;52.316;10.530;2024-03-17T10:46:54;9.70;99.90
16479;DHT22;8350;52.316;10.530;2024-03-17T10:49:32;9.60;99.90
16479;DHT22;8350;52.316;10.530;2024-03-17T10:52:00;9.80;99.90
16479;DHT22;8350;52.316;10.530;2024-03-17T10:54:28;9.90;99.90
16479;DHT22;8350;52.316;10.530;2024-03-17T10:56:56;10.00;99.90
16479;DHT22;8350;52.316;10.530;2024-03-17T10:59:34;10.30;99.90
16479;DHT22;8350;52.316;10.530;2024-03-17T11:02:17;10.60;99.90
16479;DHT22;8350;52.316;10.530;2024-03-17T11:04:48;10.50;99.90
16479;DHT22;8350;52.316;10.530;2024-03-17T11:07:17;10.80;99.90
16479;DHT22;8350;52.316;10.530;2024-03-17T11:09:46;10.70;99.90
16479;DHT22;8350;52.316;10.530;2024-03-17T11:12:42;10.70;99.90
16479;DHT22;8350;52.316;10.530;2024-03-17T11:15:38;10.60;99.90
16479;DHT22;8350;52.316;10.530;2024-03-17T11:21:22;10.70;99.90
16479;DHT22;8350;52.316;10.530;2024-03-17T11:24:01;11.00;99.90
16479;DHT22;8350;52.316;10.530;2024-03-17T11:26:30;11.30;99.90
16479;DHT22;8350;52.316;10.530;2024-03-17T11:29:04;11.50;99.90
16479;DHT22;8350;52.316;10.530;2024-03-17T11:31:43;11.40;99.90
16479;DHT22;8350;52.316;10.530;2024-03-17T11:34:36;11.30;99.90
16479;DHT22;8350;52.316;10.530;2024-03-17T11:37:06;11.40;99.90
16479;DHT22;8350;52.316;10.530;2024-03-17T11:39:53;11.60;99.90
16479;DHT22;8350;52.316;10.530;2024-03-17T11:42:25;11.40;99.90
16479;DHT22;8350;52.316;10.530;2024-03-17T11:44:59;11.20;99.90
16479;DHT22;8350;52.316;10.530;2024-03-17T11:47:36;10.80;99.90
16479;DHT22;8350;52.316;10.530;2024-03-17T11:50:04;10.60;99.90
16479;DHT22;8350;52.316;10.530;2024-03-17T11:52:38;10.30;99.90
16479;DHT22;8350;52.316;10.530;2024-03-17T11:55:15;10.20;99.90
16479;DHT22;8350;52.316;10.530;2024-03-17T11:57:43;10.00;99.90
16479;DHT22;8350;52.316;10.530;2024-03-17T12:00:19;10.10;99.90
16479;DHT22;8350;52.316;10.530;2024-03-17T12:02:48;10.50;99.90
16479;DHT22;8350;52.316;10.530;2024-03-17T12:05:18;10.40;99.90
16479;DHT22;8350;52.316;10.530;2024-03-17T12:07:48;10.10;99.90
16479;DHT22;8350;52.316;10.530;2024-03-17T12:10:13;10.10;99.90
16479;DHT22;8350;52.316;10.530;2024-03-17T12:12:47;9.90;99.90
16479;DHT22;8350;52.316;10.530;2024-03-17T12:15:17;9.90;99.90
16479;DHT22;8350;52.316;10.530;2024-03-17T12:17:45;10.10;99.90
16479;DHT22;8350;52.316;10.530;2024-03-17T12:20:17;10.20;99.90
16479;DHT22;8350;52.316;10.530;2024-03-17T12:22:50;10.60;99.90
16479;DHT22;8350;52.316;10.530;2024-03-17T12:25:19;11.00;99.90
16479;DHT22;8350;52.316;10.530;2024-03-17T12:27:48;11.40;99.90
16479;DHT22;8350;52.316;10.530;2024-03-17T12:30:16;11.60;99.90
16479;DHT22;8350;52.316;10.530;2024-03-17T12:32:44;11.70;99.90
16479;DHT22;8350;52.316;10.530;2024-03-17T12:35:14;11.90;99.90
16479;DHT22;8350;52.316;10.530;2024-03-17T12:37:54;11.90;99.90
16479;DHT22;8350;52.316;10.530;2024-03-17T12:40:24;12.10;99.90
16479;DHT22;8350;52.316;10.530;2024-03-17T12:43:13;12.10;99.90
16479;DHT22;8350;52.316;10.530;2024-03-17T12:45:44;12.10;99.90
16479;DHT22;8350;52.316;10.530;2024-03-17T12:48:17;12.20;99.90
16479;DHT22;8350;52.316;10.530;2024-03-17T12:50:47;12.30;99.90
16479;DHT22;8350;52.316;10.530;2024-03-17T12:53:29;12.40;99.90
16479;DHT22;8350;52.316;10.530;2024-03-17T12:56:02;12.00;99.90
16479;DHT22;8350;52.316;10.530;2024-03-17T12:58:46;12.00;99.90
16479;DHT22;8350;52.316;10.530;2024-03-17T13:01:42;12.30;99.90
16479;DHT22;8350;52.316;10.530;2024-03-17T13:04:14;12.50;99.90
16479;DHT22;8350;52.316;10.530;2024-03-17T13:06:44;12.70;99.90
16479;DHT22;8350;52.316;10.530;2024-03-17T13:09:14;12.70;99.90
16479;DHT22;8350;52.316;10.530;2024-03-17T13:11:44;12.80;99.90
16479;DHT22;8350;52.316;10.530;2024-03-17T13:14:10;13.10;99.90
16479;DHT22;8350;52.316;10.530;2024-03-17T13:16:45;13.20;99.90
16479;DHT22;8350;52.316;10.530;2024-03-17T13:19:17;13.30;99.90
16479;DHT22;8350;52.316;10.530;2024-03-17T13:21:44;13.30;99.90
16479;DHT22;8350;52.316;10.530;2024-03-17T13:24:13;13.20;99.90
16479;DHT22;8350;52.316;10.530;2024-03-17T13:26:40;12.70;99.90
16479;DHT22;8350;52.316;10.530;2024-03-17T13:29:20;12.20;99.90
16479;DHT22;8350;52.316;10.530;2024-03-17T13:31:47;12.00;99.90
16479;DHT22;8350;52.316;10.530;2024-03-17T13:34:14;12.00;99.90
16479;DHT22;8350;52.316;10.530;2024-03-17T13:36:40;12.00;99.90
16479;DHT22;8350;52.316;10.530;2024-03-17T13:39:07;11.90;99.90
16479;DHT22;8350;52.316;10.530;2024-03-17T13:41:39;11.80;99.90
16479;DHT22;8350;52.316;10.530;2024-03-17T13:44:09;11.80;99.90
16479;DHT22;8350;52.316;10.530;2024-03-17T13:46:36;11.60;99.90
16479;DHT22;8350;52.316;10.530;2024-03-17T13:49:38;11.80;99.90
16479;DHT22;8350;52.316;10.530;2024-03-17T13:51:59;11.70;99.90
16479;DHT22;8350;52.316;10.530;2024-03-17T13:54:26;11.50;99.90
16479;DHT22;8350;52.316;10.530;2024-03-17T13:56:54;11.50;99.90
16479;DHT22;8350;52.316;10.530;2024-03-17T13:59:23;11.70;99.90
16479;DHT22;8350;52.316;10.530;2024-03-17T14:01:59;11.50;99.90
16479;DHT22;8350;52.316;10.530;2024-03-17T14:04:27;11.60;99.90
16479;DHT22;8350;52.316;10.530;2024-03-17T14:06:56;11.80;99.90
16479;DHT22;8350;52.316;10.530;2024-03-17T14:09:23;11.80;99.90
16479;DHT22;8350;52.316;10.530;2024-03-17T14:11:49;11.80;99.90
16479;DHT22;8350;52.316;10.530;2024-03-17T14:14:18;12.00;99.90
16479;DHT22;8350;52.316;10.530;2024-03-17T14:16:45;12.10;99.90
16479;DHT22;8350;52.316;10.530;2024-03-17T14:19:11;12.30;99.90
16479;DHT22;8350;52.316;10.530;2024-03-17T14:21:38;12.00;99.90
16479;DHT22;8350;52.316;10.530;2024-03-17T14:24:05;11.80;99.90
16479;DHT22;8350;52.316;10.530;2024-03-17T14:26:36;12.00;99.90
16479;DHT22;8350;52.316;10.530;2024-03-17T14:29:11;12.20;99.90
16479;DHT22;8350;52.316;10.530;2024-03-17T14:31:39;12.10;99.90
16479;DHT22;8350;52.316;10.530;2024-03-17T14:34:09;12.00;99.90
16479;DHT22;8350;52.316;10.530;2024-03-17T14:36:39;12.00;99.90
16479;DHT22;8350;52.316;10.530;2024-03-17T14:39:06;11.90;99.90
16479;DHT22;8350;52.316;10.530;2024-03-17T14:41:33;11.70;99.90
16479;DHT22;8350;52.316;10.530;2024-03-17T14:44:00;11.60;99.90
16479;DHT22;8350;52.316;10.530;2024-03-17T14:46:27;11.60;99.90
16479;DHT22;8350;52.316;10.530;2024-03-17T14:48:55;11.70;99.90
16479;DHT22;8350;52.316;10.530;2024-03-17T14:51:22;11.70;99.90
16479;DHT22;8350;52.316;10.530;2024-03-17T14:53:52;11.70;99.90
16479;DHT22;8350;52.316;10.530;2024-03-17T14:56:19;11.70;99.90
16479;DHT22;8350;52.316;10.530;2024-03-17T14:58:46;11.70;99.90
16479;DHT22;8350;52.316;10.530;2024-03-17T15:01:13;11.60;99.90
16479;DHT22;8350;52.316;10.530;2024-03-17T15:03:40;11.40;99.90
16479;DHT22;8350;52.316;10.530;2024-03-17T15:06:11;11.40;99.90
16479;DHT22;8350;52.316;10.530;2024-03-17T15:08:40;11.50;99.90
16479;DHT22;8350;52.316;10.530;2024-03-17T15:11:07;11.60;99.90
16479;DHT22;8350;52.316;10.530;2024-03-17T15:13:35;11.60;99.90
16479;DHT22;8350;52.316;10.530;2024-03-17T15:16:02;11.70;99.90
16479;DHT22;8350;52.316;10.530;2024-03-17T15:18:30;11.70;99.90
16479;DHT22;8350;52.316;10.530;2024-03-17T15:20:57;11.70;99.90
16479;DHT22;8350;52.316;10.530;2024-03-17T15:23:30;11.70;99.90
16479;DHT22;8350;52.316;10.530;2024-03-17T15:26:00;11.60;99.90
16479;DHT22;8350;52.316;10.530;2024-03-17T15:28:34;11.60;99.90
16479;DHT22;8350;52.316;10.530;2024-03-17T15:31:03;11.60;99.90
16479;DHT22;8350;52.316;10.530;2024-03-17T15:33:31;11.60;99.90
16479;DHT22;8350;52.316;10.530;2024-03-17T15:36:00;11.70;99.90
16479;DHT22;8350;52.316;10.530;2024-03-17T15:38:29;11.70;99.90
16479;DHT22;8350;52.316;10.530;2024-03-17T15:40:57;11.50;99.90
16479;DHT22;8350;52.316;10.530;2024-03-17T15:43:26;11.30;99.90
16479;DHT22;8350;52.316;10.530;2024-03-17T15:45:56;11.10;99.90
16479;DHT22;8350;52.316;10.530;2024-03-17T15:48:26;10.90;99.90
16479;DHT22;8350;52.316;10.530;2024-03-17T15:50:57;10.70;99.90
16479;DHT22;8350;52.316;10.530;2024-03-17T15:53:28;10.70;99.90
16479;DHT22;8350;52.316;10.530;2024-03-17T15:55:55;10.70;99.90
16479;DHT22;8350;52.316;10.530;2024-03-17T15:58:23;10.70;99.90
16479;DHT22;8350;52.316;10.530;2024-03-17T16:00:50;10.70;99.90